Ana Sayfa
METAR-TAF:

METAR-TAF

Havaalanları :

Ağrotur, Kıbrıs

Enlem: 34-35N, Boylam: 032-59E, yükseklik: 23 m

Güncel hava durumu gözlemi

Rapor saat 15:50 UTC de 26 dakika önce yapıldı.
Rüzgar doğudan 11 kt
Sıcaklık 26°C
Nem 70%
Basınç 1010 hPa
Görüş mesafesi 10 km veya daha fazla
5000 ft yükseklikte az bulutlu

METAR: LCRA 231550Z 09011KT 9999 FEW050 26/20 Q1010 NOSIG

Saat: 19:16 (16:16 UTC)

Tahmin

Rapor saat 13:11 UTC de 3 saat ve 5 dakika önce yapıldı.
Ayın 23'si saat 15 UTC'den ayın 24'si saat 09 UTC'ye kadar geçerli Tahmin
Rüzgar doğudan 15 kt
Görüş mesafesi 10 km veya daha fazla
4000 ft yükseklikte az bulutlu
Dönüşüyor
ayın 23'si saat 18 UTC'den ayın 23'si saat 21 UTC'ye kadar
Rüzgar kuzeydoğudan 15 kt
Dönüşüyor
ayın 23'si saat 21 UTC'den ayın 23'si saat 24 UTC'ye kadar
Rüzgar değişken yönden 5 kt

TAF: LCRA 231311Z 2315/2409 09015KT 9999 FEW040 BECMG 2318/2321 05015KT BECMG 2321/2324 VRB05KT

4.000'den fazla havaalanı için hava durumu gözlemleri ve tahminleri (METAR ve TAF raporları).

Kullanılabilir istasyonlar harita üzerinde sarı ve kırmızı noktalarla gösterilir.

İstasyonun adını görmek için fareyi noktanın üzerinde gezdirin.

Sonrasında hava gözlem ve tahminlerini görmek için tıklayın.

Haritayı değiştirmek için: yaklaştırmak için siyah artı işaretli yeşil düğmeye ve uzaklaştırmak için de eksi işaretli düğmeye hızla tıklayın; bitişik haritalar için yeşil okları kullanın.


METAR-TAF: